NCAR-RAP Real-Time Weather Data

Output produced by METARs form (28 June 2017  12:06 UTC)
found at http://weather.rap.ucar.edu/surface/
 
Conditions at: KPGD observed 28 June 2017  11:53 UTC
Temperature: 24.4°C (76°F)
Dewpoint: 23.3°C (74°F) [RH = 94%]
Pressure (altimeter): 30.03 inches Hg (1017.0 mb)
[Sea-level pressure: 1017.0 mb]
Winds: from the NE (50 degrees) at 3 MPH (3 knots; 1.6 m/s)
Visibility: 10 or more miles (16+ km)
Ceiling: at least 12,000 feet AGL
Clouds: sky clear below 12,000 feet AGL
Present Weather: no significant weather observed at this time
KPGD 281153Z 05003KT 10SM CLR 24/23 A3003 RMK AO2 SLP170 T02440233 10244 20228 51013

Conditions at: KPGD observed 28 June 2017  10:53 UTC
Temperature: 22.8°C (73°F)
Dewpoint: 22.8°C (73°F) [RH = 100%]
Pressure (altimeter): 30.02 inches Hg (1016.7 mb)
[Sea-level pressure: 1016.7 mb]
Winds: from the ENE (60 degrees) at 3 MPH (3 knots; 1.6 m/s)
Visibility: 5 miles (8 km)
Ceiling: at least 12,000 feet AGL
Clouds: sky clear below 12,000 feet AGL
Present Weather: BR  (mist)
KPGD 281053Z 06003KT 5SM BR CLR 23/23 A3002 RMK AO2 SLP167 T02280228

Conditions at: KPGD observed 28 June 2017  09:53 UTC
Temperature: 23.3°C (74°F)
Dewpoint: 22.8°C (73°F) [RH = 97%]
Pressure (altimeter): 30.01 inches Hg (1016.3 mb)
[Sea-level pressure: 1016.2 mb]
Winds: from the NE (40 degrees) at 3 MPH (3 knots; 1.6 m/s)
Visibility: 6 miles (10 km)
Ceiling: at least 12,000 feet AGL
Clouds: sky clear below 12,000 feet AGL
Present Weather: BR  (mist)
KPGD 280953Z AUTO 04003KT 6SM BR CLR 23/23 A3001 RMK AO2 SLP162 T02330228

Conditions at: KPGD observed 28 June 2017  08:53 UTC
Temperature: 23.3°C (74°F)
Dewpoint: 22.8°C (73°F) [RH = 97%]
Pressure (altimeter): 29.99 inches Hg (1015.7 mb)
[Sea-level pressure: 1015.7 mb]
Winds: from the E (90 degrees) at 3 MPH (3 knots; 1.6 m/s)
Visibility: 7 miles (11 km)
Ceiling: at least 12,000 feet AGL
Clouds: sky clear below 12,000 feet AGL
Present Weather: automated observation with no human augmentation;
there may or may not be significant weather present at this time
KPGD 280853Z AUTO 09003KT 7SM CLR 23/23 A2999 RMK AO2 SLP157 T02330228 56008

Conditions at: KPGD observed 28 June 2017  08:30 UTC
Temperature: 23.3°C (74°F)
Dewpoint: 22.8°C (73°F) [RH = 97%]
Pressure (altimeter): 29.99 inches Hg (1015.7 mb)
Winds: from the ENE (60 degrees) at 6 MPH (5 knots; 2.6 m/s)
Visibility: 7 miles (11 km)
Ceiling: at least 12,000 feet AGL
Clouds: scattered clouds at 500 feet AGL
Present Weather: automated observation with no human augmentation;
there may or may not be significant weather present at this time
KPGD 280830Z AUTO 06005KT 7SM SCT005 23/23 A2999 RMK AO2 T02330228

Conditions at: KPGD observed 28 June 2017  08:22 UTC
Temperature: 23.3°C (74°F)
Dewpoint: 22.8°C (73°F) [RH = 97%]
Pressure (altimeter): 29.99 inches Hg (1015.7 mb)
Winds: from the NE (50 degrees) at 5 MPH (4 knots; 2.1 m/s)
Visibility: 7 miles (11 km)
Ceiling: 400 feet AGL
Clouds: broken clouds at 400 feet AGL
Present Weather: automated observation with no human augmentation;
there may or may not be significant weather present at this time
KPGD 280822Z AUTO 05004KT 7SM BKN004 23/23 A2999 RMK AO2 T02330228

Conditions at: KPGD observed 28 June 2017  08:13 UTC
Temperature: 23.3°C (74°F)
Dewpoint: 22.8°C (73°F) [RH = 97%]
Pressure (altimeter): 30.00 inches Hg (1016.0 mb)
Winds: from the NE (40 degrees) at 5 MPH (4 knots; 2.1 m/s)
Visibility: 8 miles (13 km)
Ceiling: at least 12,000 feet AGL
Clouds: scattered clouds at 400 feet AGL
Present Weather: automated observation with no human augmentation;
there may or may not be significant weather present at this time
KPGD 280813Z AUTO 04004KT 8SM SCT004 23/23 A3000 RMK AO2 T02330228

Conditions at: KPGD observed 28 June 2017  07:53 UTC
Temperature: 23.3°C (74°F)
Dewpoint: 22.8°C (73°F) [RH = 97%]
Pressure (altimeter): 30.00 inches Hg (1016.0 mb)
[Sea-level pressure: 1015.8 mb]
Winds: calm
Visibility: 8 miles (13 km)
Ceiling: at least 12,000 feet AGL
Clouds: sky clear below 12,000 feet AGL
Present Weather: automated observation with no human augmentation;
there may or may not be significant weather present at this time
KPGD 280753Z AUTO 00000KT 8SM CLR 23/23 A3000 RMK AO2 SLP158 T02330228

Conditions at: KPGD observed 28 June 2017  06:53 UTC
Temperature: 23.9°C (75°F)
Dewpoint: 23.3°C (74°F) [RH = 96%]
Pressure (altimeter): 30.00 inches Hg (1016.0 mb)
[Sea-level pressure: 1016.0 mb]
Winds: calm
Visibility: 10 or more miles (16+ km)
Ceiling: at least 12,000 feet AGL
Clouds: sky clear below 12,000 feet AGL
Present Weather: automated observation with no human augmentation;
there may or may not be significant weather present at this time
KPGD 280653Z AUTO 00000KT 10SM CLR 24/23 A3000 RMK AO2 SLP160 T02390233

Conditions at: KPGD observed 28 June 2017  05:53 UTC
Temperature: 23.9°C (75°F)
Dewpoint: 22.8°C (73°F) [RH = 94%]
Pressure (altimeter): 30.02 inches Hg (1016.7 mb)
[Sea-level pressure: 1016.5 mb]
Winds: calm
Visibility: 10 or more miles (16+ km)
Ceiling: at least 12,000 feet AGL
Clouds: sky clear below 12,000 feet AGL
Present Weather: automated observation with no human augmentation;
there may or may not be significant weather present at this time
KPGD 280553Z AUTO 00000KT 10SM CLR 24/23 A3002 RMK AO2 SLP165 T02390228 10283 20239 58011

Conditions at: KPGD observed 28 June 2017  04:53 UTC
Temperature: 23.9°C (75°F)
Dewpoint: 22.8°C (73°F) [RH = 94%]
Pressure (altimeter): 30.03 inches Hg (1017.0 mb)
[Sea-level pressure: 1017.1 mb]
Winds: from the E (100 degrees) at 5 MPH (4 knots; 2.1 m/s)
Visibility: 10 or more miles (16+ km)
Ceiling: at least 12,000 feet AGL
Clouds: sky clear below 12,000 feet AGL
Present Weather: automated observation with no human augmentation;
there may or may not be significant weather present at this time
KPGD 280453Z AUTO 10004KT 10SM CLR 24/23 A3003 RMK AO2 SLP171 T02390228 403170239

Conditions at: KPGD observed 28 June 2017  03:53 UTC
Temperature: 24.4°C (76°F)
Dewpoint: 22.2°C (72°F) [RH = 88%]
Pressure (altimeter): 30.05 inches Hg (1017.7 mb)
[Sea-level pressure: 1017.7 mb]
Winds: from the E (90 degrees) at 6 MPH (5 knots; 2.6 m/s)
Visibility: 10 or more miles (16+ km)
Ceiling: at least 12,000 feet AGL
Clouds: sky clear below 12,000 feet AGL
Present Weather: automated observation with no human augmentation;
there may or may not be significant weather present at this time
KPGD 280353Z AUTO 09005KT 10SM CLR 24/22 A3005 RMK AO2 SLP177 T02440222

Conditions at: KPGD observed 28 June 2017  02:53 UTC
Temperature: 25.6°C (78°F)
Dewpoint: 22.8°C (73°F) [RH = 85%]
Pressure (altimeter): 30.05 inches Hg (1017.7 mb)
[Sea-level pressure: 1017.6 mb]
Winds: from the ENE (70 degrees) at 9 MPH (8 knots; 4.2 m/s)
Visibility: 10 or more miles (16+ km)
Ceiling: 8500 feet AGL
Clouds: few clouds at 6000 feet AGL
broken clouds at 8500 feet AGL
Present Weather: automated observation with no human augmentation;
there may or may not be significant weather present at this time
KPGD 280253Z AUTO 07008KT 10SM FEW060 BKN085 26/23 A3005 RMK AO2 SLP176 T02560228 53019

Conditions at: KPGD observed 28 June 2017  01:53 UTC
Temperature: 26.1°C (79°F)
Dewpoint: 22.2°C (72°F) [RH = 79%]
Pressure (altimeter): 30.02 inches Hg (1016.7 mb)
[Sea-level pressure: 1016.7 mb]
Winds: from the NNE (20 degrees) at 5 MPH (4 knots; 2.1 m/s)
Visibility: 10 or more miles (16+ km)
Ceiling: at least 12,000 feet AGL
Clouds: scattered clouds at 6500 feet AGL
Present Weather: automated observation with no human augmentation;
there may or may not be significant weather present at this time
KPGD 280153Z AUTO 02004KT 10SM SCT065 26/22 A3002 RMK AO2 SLP167 T02610222

Conditions at: KPGD observed 28 June 2017  00:53 UTC
Temperature: 26.7°C (80°F)
Dewpoint: 21.7°C (71°F) [RH = 74%]
Pressure (altimeter): 30.00 inches Hg (1016.0 mb)
[Sea-level pressure: 1015.8 mb]
Winds: from the NNE (20 degrees) at 8 MPH (7 knots; 3.6 m/s)
Visibility: 10 or more miles (16+ km)
Ceiling: at least 12,000 feet AGL
Clouds: scattered clouds at 10000 feet AGL
Present Weather: automated observation with no human augmentation;
there may or may not be significant weather present at this time
KPGD 280053Z AUTO 02007KT 10SM SCT100 27/22 A3000 RMK AO2 SLP158 T02670217

Conditions at: KPGD observed 28 June 2017  00:06 UTC
Temperature: 28.3°C (83°F)
Dewpoint: 22.8°C (73°F) [RH = 72%]
Pressure (altimeter): 29.99 inches Hg (1015.7 mb)
Winds: from the N (360 degrees) at 8 MPH (7 knots; 3.6 m/s)
Visibility: 10 or more miles (16+ km)
Ceiling: 9500 feet AGL
Clouds: few clouds at 3400 feet AGL
broken clouds at 9500 feet AGL
Present Weather: automated observation with no human augmentation;
there may or may not be significant weather present at this time
KPGD 280006Z AUTO 36007KT 10SM FEW034 BKN095 28/23 A2999 RMK AO2 LTG DSNT SE T02830228

Conditions at: KPGD observed 27 June 2017  23:53 UTC
Temperature: 28.3°C (83°F)
Dewpoint: 22.2°C (72°F) [RH = 70%]
Pressure (altimeter): 29.99 inches Hg (1015.7 mb)
[Sea-level pressure: 1015.7 mb]
Winds: from the N (360 degrees) at 12 MPH (10 knots; 5.2 m/s)
Visibility: 10 or more miles (16+ km)
Ceiling: at least 12,000 feet AGL
Clouds: few clouds at 3400 feet AGL
scattered clouds at 9500 feet AGL
Present Weather: VCTS  (thunderstorm in vicinity)
KPGD 272353Z 36010KT 10SM VCTS FEW034 SCT095 28/22 A2999 RMK AO2 LTG DSNT SE SLP157 T02830222 10317 20283 53007

Conditions at: KPGD observed 27 June 2017  23:38 UTC
Temperature: 29.4°C (85°F)
Dewpoint: 22.8°C (73°F) [RH = 68%]
Pressure (altimeter): 29.99 inches Hg (1015.7 mb)
Winds: from the NNW (340 degrees) at 9 MPH (8 knots; 4.2 m/s)
Visibility: 10 or more miles (16+ km)
Ceiling: at least 12,000 feet AGL
Clouds: few clouds at 9000 feet AGL
Present Weather: VCTS  (thunderstorm in vicinity)
KPGD 272338Z 34008KT 10SM VCTS FEW090 29/23 A2999 RMK AO2 LTG DSNT E T02940228

Conditions at: KPGD observed 27 June 2017  22:53 UTC
Temperature: 30.6°C (87°F)
Dewpoint: 22.8°C (73°F) [RH = 63%]
Pressure (altimeter): 29.97 inches Hg (1015.0 mb)
[Sea-level pressure: 1014.9 mb]
Winds: from the WNW (290 degrees) at 9 MPH (8 knots; 4.2 m/s)
Visibility: 10 or more miles (16+ km)
Ceiling: at least 12,000 feet AGL
Clouds: few clouds at 5000 feet AGL
Present Weather: no significant weather observed at this time
KPGD 272253Z 29008KT 10SM FEW050 31/23 A2997 RMK AO2 LTG DSNT N SLP149 T03060228

Conditions at: KPGD observed 27 June 2017  21:53 UTC
Temperature: 30.6°C (87°F)
Dewpoint: 22.8°C (73°F) [RH = 63%]
Pressure (altimeter): 29.96 inches Hg (1014.6 mb)
[Sea-level pressure: 1014.6 mb]
Winds: from the W (260 degrees) at 8 MPH (7 knots; 3.6 m/s)
Visibility: 10 or more miles (16+ km)
Ceiling: 8000 feet AGL
Clouds: broken clouds at 8000 feet AGL
Present Weather: no significant weather observed at this time
KPGD 272153Z 26007KT 10SM BKN080 31/23 A2996 RMK AO2 LTG DSNT E SLP146 T03060228

Conditions at: KPGD observed 27 June 2017  20:53 UTC
Temperature: 30.6°C (87°F)
Dewpoint: 23.9°C (75°F) [RH = 68%]
Pressure (altimeter): 29.97 inches Hg (1015.0 mb)
[Sea-level pressure: 1015.0 mb]
Winds: from the WSW (240 degrees) at 8 MPH (7 knots; 3.6 m/s)
Visibility: 10 or more miles (16+ km)
Ceiling: 8000 feet AGL
Clouds: broken clouds at 8000 feet AGL
Present Weather: no significant weather observed at this time
KPGD 272053Z 24007KT 10SM BKN080 31/24 A2997 RMK AO2 LTG DSNT NE SLP150 T03060239 56017

Conditions at: KPGD observed 27 June 2017  19:53 UTC
Temperature: 30.6°C (87°F)
Dewpoint: 22.8°C (73°F) [RH = 63%]
Pressure (altimeter): 29.98 inches Hg (1015.3 mb)
[Sea-level pressure: 1015.2 mb]
Winds: from the WNW (290 degrees) at 10 MPH (9 knots; 4.7 m/s)
Visibility: 10 or more miles (16+ km)
Ceiling: at least 12,000 feet AGL
Clouds: sky clear below 12,000 feet AGL
Present Weather: no significant weather observed at this time
KPGD 271953Z 29009KT 10SM CLR 31/23 A2998 RMK AO2 LTG DSNT NE SLP152 T03060228

Conditions at: KPGD observed 27 June 2017  19:32 UTC
Temperature: 31.1°C (88°F)
Dewpoint: 22.2°C (72°F) [RH = 59%]
Pressure (altimeter): 29.99 inches Hg (1015.7 mb)
Winds: from the WSW (250 degrees) at 8 MPH (7 knots; 3.6 m/s)
Visibility: 10 or more miles (16+ km)
Ceiling: at least 12,000 feet AGL
Clouds: few clouds at 8000 feet AGL
Present Weather: no significant weather observed at this time
KPGD 271932Z 25007KT 10SM FEW080 31/22 A2999 RMK AO2 T03110222

Conditions at: KPGD observed 27 June 2017  19:17 UTC
Temperature: 31.7°C (89°F)
Dewpoint: 22.2°C (72°F) [RH = 57%]
Pressure (altimeter): 29.99 inches Hg (1015.7 mb)
Winds: from the WSW (250 degrees) at 5 MPH (4 knots; 2.1 m/s)
Visibility: 10 or more miles (16+ km)
Ceiling: at least 12,000 feet AGL
Clouds: few clouds at 8500 feet AGL
Present Weather: VCTS  (thunderstorm in vicinity)
KPGD 271917Z 25004KT 10SM VCTS FEW085 32/22 A2999 RMK AO2 LTG DSNT W T03170222

Conditions at: KPGD observed 27 June 2017  18:53 UTC
Temperature: 31.1°C (88°F)
Dewpoint: 23.3°C (74°F) [RH = 63%]
Pressure (altimeter): 29.99 inches Hg (1015.7 mb)
[Sea-level pressure: 1015.7 mb]
Winds: variable direction winds at 3 MPH (3 knots; 1.6 m/s)
Visibility: 10 or more miles (16+ km)
Ceiling: at least 12,000 feet AGL
Clouds: sky clear below 12,000 feet AGL
Present Weather: no significant weather observed at this time
KPGD 271853Z VRB03KT 10SM CLR 31/23 A2999 RMK AO2 LTG DSNT E AND W SLP157 T03110233

Conditions at: KPGD observed 27 June 2017  18:18 UTC
Temperature: 31.1°C (88°F)
Dewpoint: 23.9°C (75°F) [RH = 66%]
Pressure (altimeter): 30.00 inches Hg (1016.0 mb)
Winds: from the WSW (250 degrees) at 6 MPH (5 knots; 2.6 m/s)
Visibility: 10 or more miles (16+ km)
Ceiling: 7000 feet AGL
Clouds: broken clouds at 7000 feet AGL
Present Weather: no significant weather observed at this time
KPGD 271818Z 25005KT 10SM BKN070 31/24 A3000 RMK AO2 LTG DSNT E AND S AND NW T03110239

Conditions at: KPGD observed 27 June 2017  17:53 UTC
Temperature: 29.4°C (85°F)
Dewpoint: 23.3°C (74°F) [RH = 70%]
Pressure (altimeter): 30.02 inches Hg (1016.7 mb)
[Sea-level pressure: 1016.7 mb]
Winds: from the ESE (110 degrees) at 3 MPH (3 knots; 1.6 m/s)
Visibility: 10 or more miles (16+ km)
Ceiling: 7000 feet AGL
Clouds: few clouds at 3700 feet AGL
broken clouds at 7000 feet AGL
broken clouds at 11000 feet AGL
Present Weather: VCTS  (thunderstorm in vicinity)
KPGD 271753Z 11003KT 10SM VCTS FEW037 BKN070 BKN110 29/23 A3002 RMK AO2 LTG DSNT ALQDS RAB25E43 SLP167 P0000 60000 T02940233 10317 20267 58004

Conditions at: KPGD observed 27 June 2017  17:11 UTC
Temperature: 28.3°C (83°F)
Dewpoint: 23.3°C (74°F) [RH = 74%]
Pressure (altimeter): 30.03 inches Hg (1017.0 mb)
Winds: from the WNW (290 degrees) at 9 MPH (8 knots; 4.2 m/s)
Visibility: 10 or more miles (16+ km)
Ceiling: at least 12,000 feet AGL
Clouds: scattered clouds at 6500 feet AGL
scattered clouds at 12000 feet AGL
Present Weather: VCTS  (thunderstorm in vicinity)
KPGD 271711Z 29008KT 10SM VCTS SCT065 SCT120 28/23 A3003 RMK AO2 LTG DSNT N AND SE AND S T02830233

Conditions at: KPGD observed 27 June 2017  16:53 UTC
Temperature: 28.3°C (83°F)
Dewpoint: 22.8°C (73°F) [RH = 72%]
Pressure (altimeter): 30.03 inches Hg (1017.0 mb)
[Sea-level pressure: 1016.9 mb]
Winds: from the WNW (300 degrees) at 13 MPH (11 knots; 5.7 m/s)
Visibility: 10 or more miles (16+ km)
Ceiling: at least 12,000 feet AGL
Clouds: scattered clouds at 6500 feet AGL
Present Weather: no significant weather observed at this time
KPGD 271653Z 30011KT 10SM SCT065 28/23 A3003 RMK AO2 LTG DSNT ALQDS RAE23 SLP169 P0000 T02830228

Conditions at: KPGD observed 27 June 2017  15:53 UTC
Temperature: 30.0°C (86°F)
Dewpoint: 22.8°C (73°F) [RH = 65%]
Pressure (altimeter): 30.03 inches Hg (1017.0 mb)
[Sea-level pressure: 1017.0 mb]
Winds: from the NNW (330 degrees) at 7 MPH (6 knots; 3.1 m/s)
Visibility: 10 or more miles (16+ km)
Ceiling: 6000 feet AGL
Clouds: few clouds at 3100 feet AGL
broken clouds at 6000 feet AGL
broken clouds at 8500 feet AGL
Present Weather: -RA  (light rain)
KPGD 271553Z 33006KT 10SM -RA FEW031 BKN060 BKN085 30/23 A3003 RMK AO2 LTG DSNT SE AND S AND NW RAB53 SLP170 P0000 T03000228

Conditions at: KPGD observed 27 June 2017  14:53 UTC
Temperature: 30.6°C (87°F)
Dewpoint: 23.3°C (74°F) [RH = 65%]
Pressure (altimeter): 30.04 inches Hg (1017.4 mb)
[Sea-level pressure: 1017.1 mb]
Winds: variable direction winds at 3 MPH (3 knots; 1.6 m/s)
Visibility: 10 or more miles (16+ km)
Ceiling: at least 12,000 feet AGL
Clouds: few clouds at 2900 feet AGL
scattered clouds at 5500 feet AGL
Present Weather: no significant weather observed at this time
KPGD 271453Z VRB03KT 10SM FEW029 SCT055 31/23 A3004 RMK AO2 LTG DSNT NW SLP171 T03060233 50010

Conditions at: KPGD observed 27 June 2017  14:16 UTC
Temperature: 29.4°C (85°F)
Dewpoint: 23.3°C (74°F) [RH = 70%]
Pressure (altimeter): 30.04 inches Hg (1017.4 mb)
Winds: variable direction winds at 5 MPH (4 knots; 2.1 m/s)
Visibility: 10 or more miles (16+ km)
Ceiling: 2500 feet AGL
Clouds: broken clouds at 2500 feet AGL
Present Weather: no significant weather observed at this time
KPGD 271416Z VRB04KT 10SM BKN025 29/23 A3004 RMK AO2 T02940233

Conditions at: KPGD observed 27 June 2017  13:53 UTC
Temperature: 30.0°C (86°F)
Dewpoint: 22.8°C (73°F) [RH = 65%]
Pressure (altimeter): 30.04 inches Hg (1017.4 mb)
[Sea-level pressure: 1017.3 mb]
Winds: from the SW (220 degrees) at 6 MPH (5 knots; 2.6 m/s)
Visibility: 10 or more miles (16+ km)
Ceiling: 6000 feet AGL
Clouds: scattered clouds at 2600 feet AGL
broken clouds at 6000 feet AGL
Present Weather: no significant weather observed at this time
KPGD 271353Z 22005KT 10SM SCT026 BKN060 30/23 A3004 RMK AO2 SLP173 T03000228

Conditions at: KPGD observed 27 June 2017  12:53 UTC
Temperature: 28.3°C (83°F)
Dewpoint: 21.7°C (71°F) [RH = 67%]
Pressure (altimeter): 30.02 inches Hg (1016.7 mb)
[Sea-level pressure: 1016.7 mb]
Winds: from the S (170 degrees) at 5 MPH (4 knots; 2.1 m/s)
Visibility: 10 or more miles (16+ km)
Ceiling: at least 12,000 feet AGL
Clouds: few clouds at 11000 feet AGL
Present Weather: no significant weather observed at this time
KPGD 271253Z 17004KT 10SM FEW110 28/22 A3002 RMK AO2 SLP167 T02830217